sensor_id;sensor_type;location;lat;lon;timestamp;P1;durP1;ratioP1;P2;durP2;ratioP2
72301;SDS011;60235;52.234;5.186;2023-07-29T00:00:56;8.18;;;2.05;;
72301;SDS011;60235;52.234;5.186;2023-07-29T00:03:22;6.88;;;2.03;;
72301;SDS011;60235;52.234;5.186;2023-07-29T00:05:49;8.38;;;1.98;;
72301;SDS011;60235;52.234;5.186;2023-07-29T00:08:15;9.02;;;1.70;;
72301;SDS011;60235;52.234;5.186;2023-07-29T00:10:41;9.05;;;2.00;;
72301;SDS011;60235;52.234;5.186;2023-07-29T00:13:07;6.85;;;1.67;;
72301;SDS011;60235;52.234;5.186;2023-07-29T00:15:33;6.20;;;1.70;;
72301;SDS011;60235;52.234;5.186;2023-07-29T00:17:59;7.80;;;2.30;;
72301;SDS011;60235;52.234;5.186;2023-07-29T00:20:25;5.28;;;1.67;;
72301;SDS011;60235;52.234;5.186;2023-07-29T00:22:51;6.63;;;1.65;;
72301;SDS011;60235;52.234;5.186;2023-07-29T00:25:20;7.05;;;2.05;;
72301;SDS011;60235;52.234;5.186;2023-07-29T00:27:46;7.43;;;2.30;;
72301;SDS011;60235;52.234;5.186;2023-07-29T00:30:12;8.57;;;2.40;;
72301;SDS011;60235;52.234;5.186;2023-07-29T00:32:38;8.02;;;1.90;;
72301;SDS011;60235;52.234;5.186;2023-07-29T00:35:05;8.48;;;2.08;;
72301;SDS011;60235;52.234;5.186;2023-07-29T00:37:31;6.78;;;1.67;;
72301;SDS011;60235;52.234;5.186;2023-07-29T00:39:57;7.88;;;1.73;;
72301;SDS011;60235;52.234;5.186;2023-07-29T00:42:23;7.88;;;1.65;;
72301;SDS011;60235;52.234;5.186;2023-07-29T00:44:49;5.55;;;1.52;;
72301;SDS011;60235;52.234;5.186;2023-07-29T00:47:15;5.72;;;1.50;;
72301;SDS011;60235;52.234;5.186;2023-07-29T00:49:44;8.70;;;1.60;;
72301;SDS011;60235;52.234;5.186;2023-07-29T00:52:11;7.20;;;1.75;;
72301;SDS011;60235;52.234;5.186;2023-07-29T00:54:40;9.30;;;2.20;;
72301;SDS011;60235;52.234;5.186;2023-07-29T00:57:06;6.53;;;2.08;;
72301;SDS011;60235;52.234;5.186;2023-07-29T00:59:34;9.75;;;2.13;;
72301;SDS011;60235;52.234;5.186;2023-07-29T01:02:01;8.88;;;1.85;;
72301;SDS011;60235;52.234;5.186;2023-07-29T01:04:27;9.73;;;2.58;;
72301;SDS011;60235;52.234;5.186;2023-07-29T01:11:56;7.68;;;2.50;;
72301;SDS011;60235;52.234;5.186;2023-07-29T01:14:29;9.07;;;2.30;;
72301;SDS011;60235;52.234;5.186;2023-07-29T01:17:00;7.03;;;2.17;;
72301;SDS011;60235;52.234;5.186;2023-07-29T01:19:42;6.63;;;2.47;;
72301;SDS011;60235;52.234;5.186;2023-07-29T01:22:11;7.20;;;1.98;;
72301;SDS011;60235;52.234;5.186;2023-07-29T01:24:38;12.38;;;1.98;;
72301;SDS011;60235;52.234;5.186;2023-07-29T01:27:04;6.50;;;2.05;;
72301;SDS011;60235;52.234;5.186;2023-07-29T01:29:30;6.90;;;1.95;;
72301;SDS011;60235;52.234;5.186;2023-07-29T01:31:56;7.20;;;2.10;;
72301;SDS011;60235;52.234;5.186;2023-07-29T01:34:32;7.63;;;2.17;;
72301;SDS011;60235;52.234;5.186;2023-07-29T01:37:00;8.55;;;2.05;;
72301;SDS011;60235;52.234;5.186;2023-07-29T01:39:29;6.68;;;2.03;;
72301;SDS011;60235;52.234;5.186;2023-07-29T01:41:55;7.40;;;2.10;;
72301;SDS011;60235;52.234;5.186;2023-07-29T01:44:21;7.55;;;2.28;;
72301;SDS011;60235;52.234;5.186;2023-07-29T01:46:47;11.13;;;2.63;;
72301;SDS011;60235;52.234;5.186;2023-07-29T01:49:15;8.48;;;2.47;;
72301;SDS011;60235;52.234;5.186;2023-07-29T01:51:41;8.40;;;2.28;;
72301;SDS011;60235;52.234;5.186;2023-07-29T01:54:07;13.45;;;2.63;;
72301;SDS011;60235;52.234;5.186;2023-07-29T01:56:33;9.80;;;2.42;;
72301;SDS011;60235;52.234;5.186;2023-07-29T01:58:59;9.30;;;2.33;;
72301;SDS011;60235;52.234;5.186;2023-07-29T02:01:25;9.25;;;2.63;;
72301;SDS011;60235;52.234;5.186;2023-07-29T02:03:51;7.72;;;2.33;;
72301;SDS011;60235;52.234;5.186;2023-07-29T02:06:20;8.45;;;2.67;;
72301;SDS011;60235;52.234;5.186;2023-07-29T02:08:46;8.10;;;2.75;;
72301;SDS011;60235;52.234;5.186;2023-07-29T02:11:12;9.93;;;3.20;;
72301;SDS011;60235;52.234;5.186;2023-07-29T02:13:38;10.25;;;3.22;;
72301;SDS011;60235;52.234;5.186;2023-07-29T02:16:04;10.13;;;3.30;;
72301;SDS011;60235;52.234;5.186;2023-07-29T02:18:30;10.55;;;3.20;;
72301;SDS011;60235;52.234;5.186;2023-07-29T02:20:56;11.30;;;3.60;;
72301;SDS011;60235;52.234;5.186;2023-07-29T02:23:22;12.63;;;3.97;;
72301;SDS011;60235;52.234;5.186;2023-07-29T02:25:48;14.27;;;3.30;;
72301;SDS011;60235;52.234;5.186;2023-07-29T02:28:14;11.02;;;3.03;;
72301;SDS011;60235;52.234;5.186;2023-07-29T02:30:41;9.82;;;3.25;;
72301;SDS011;60235;52.234;5.186;2023-07-29T02:33:09;10.40;;;3.40;;
72301;SDS011;60235;52.234;5.186;2023-07-29T02:35:35;9.88;;;3.80;;
72301;SDS011;60235;52.234;5.186;2023-07-29T02:38:01;9.00;;;3.40;;
72301;SDS011;60235;52.234;5.186;2023-07-29T02:40:27;14.88;;;4.40;;
72301;SDS011;60235;52.234;5.186;2023-07-29T02:42:54;12.05;;;3.45;;
72301;SDS011;60235;52.234;5.186;2023-07-29T02:45:20;9.00;;;3.00;;
72301;SDS011;60235;52.234;5.186;2023-07-29T02:47:46;11.32;;;3.42;;
72301;SDS011;60235;52.234;5.186;2023-07-29T02:50:12;11.15;;;4.05;;
72301;SDS011;60235;52.234;5.186;2023-07-29T02:52:38;9.60;;;3.10;;
72301;SDS011;60235;52.234;5.186;2023-07-29T02:55:04;10.80;;;3.20;;
72301;SDS011;60235;52.234;5.186;2023-07-29T02:57:30;12.40;;;3.22;;
72301;SDS011;60235;52.234;5.186;2023-07-29T02:59:56;9.50;;;3.55;;
72301;SDS011;60235;52.234;5.186;2023-07-29T03:02:22;11.75;;;3.53;;
72301;SDS011;60235;52.234;5.186;2023-07-29T03:04:48;10.75;;;3.42;;
72301;SDS011;60235;52.234;5.186;2023-07-29T03:07:15;9.85;;;3.67;;
72301;SDS011;60235;52.234;5.186;2023-07-29T03:09:41;9.95;;;3.30;;
72301;SDS011;60235;52.234;5.186;2023-07-29T03:12:07;12.68;;;3.13;;
72301;SDS011;60235;52.234;5.186;2023-07-29T03:14:33;8.52;;;2.97;;
72301;SDS011;60235;52.234;5.186;2023-07-29T03:17:02;13.40;;;3.65;;
72301;SDS011;60235;52.234;5.186;2023-07-29T03:19:29;11.25;;;3.80;;
72301;SDS011;60235;52.234;5.186;2023-07-29T03:21:55;11.48;;;3.20;;
72301;SDS011;60235;52.234;5.186;2023-07-29T03:24:21;9.73;;;3.85;;
72301;SDS011;60235;52.234;5.186;2023-07-29T03:26:47;8.90;;;3.15;;
72301;SDS011;60235;52.234;5.186;2023-07-29T03:29:13;13.13;;;3.22;;
72301;SDS011;60235;52.234;5.186;2023-07-29T03:31:39;10.00;;;3.45;;
72301;SDS011;60235;52.234;5.186;2023-07-29T03:34:05;12.85;;;3.83;;
72301;SDS011;60235;52.234;5.186;2023-07-29T03:36:31;12.07;;;3.40;;
72301;SDS011;60235;52.234;5.186;2023-07-29T03:38:57;13.35;;;3.75;;
72301;SDS011;60235;52.234;5.186;2023-07-29T03:41:23;13.20;;;3.88;;
72301;SDS011;60235;52.234;5.186;2023-07-29T03:43:49;15.20;;;3.83;;
72301;SDS011;60235;52.234;5.186;2023-07-29T03:46:15;7.40;;;2.92;;
72301;SDS011;60235;52.234;5.186;2023-07-29T03:48:44;9.45;;;2.92;;
72301;SDS011;60235;52.234;5.186;2023-07-29T03:51:10;8.23;;;3.17;;
72301;SDS011;60235;52.234;5.186;2023-07-29T03:53:36;12.23;;;3.65;;
72301;SDS011;60235;52.234;5.186;2023-07-29T03:56:02;8.32;;;3.40;;
72301;SDS011;60235;52.234;5.186;2023-07-29T03:58:28;9.45;;;2.95;;
72301;SDS011;60235;52.234;5.186;2023-07-29T04:00:54;9.43;;;3.05;;
72301;SDS011;60235;52.234;5.186;2023-07-29T04:03:20;8.88;;;3.00;;
72301;SDS011;60235;52.234;5.186;2023-07-29T04:05:46;10.50;;;2.80;;
72301;SDS011;60235;52.234;5.186;2023-07-29T04:08:12;7.78;;;2.88;;
72301;SDS011;60235;52.234;5.186;2023-07-29T04:10:38;9.70;;;2.53;;
72301;SDS011;60235;52.234;5.186;2023-07-29T04:13:04;10.50;;;2.25;;
72301;SDS011;60235;52.234;5.186;2023-07-29T04:15:30;9.82;;;2.95;;
72301;SDS011;60235;52.234;5.186;2023-07-29T04:17:56;8.75;;;2.80;;
72301;SDS011;60235;52.234;5.186;2023-07-29T04:20:22;8.75;;;2.63;;
72301;SDS011;60235;52.234;5.186;2023-07-29T04:22:48;7.50;;;2.42;;
72301;SDS011;60235;52.234;5.186;2023-07-29T04:25:14;7.13;;;2.65;;
72301;SDS011;60235;52.234;5.186;2023-07-29T04:27:40;7.60;;;2.58;;
72301;SDS011;60235;52.234;5.186;2023-07-29T04:30:06;7.45;;;2.60;;
72301;SDS011;60235;52.234;5.186;2023-07-29T04:32:32;6.18;;;2.25;;
72301;SDS011;60235;52.234;5.186;2023-07-29T04:34:58;9.43;;;2.20;;
72301;SDS011;60235;52.234;5.186;2023-07-29T04:37:24;11.45;;;3.00;;
72301;SDS011;60235;52.234;5.186;2023-07-29T04:39:50;8.93;;;2.53;;
72301;SDS011;60235;52.234;5.186;2023-07-29T04:42:16;9.45;;;2.85;;
72301;SDS011;60235;52.234;5.186;2023-07-29T04:44:42;11.18;;;3.05;;
72301;SDS011;60235;52.234;5.186;2023-07-29T04:47:08;8.70;;;2.55;;
72301;SDS011;60235;52.234;5.186;2023-07-29T04:49:34;7.30;;;2.70;;
72301;SDS011;60235;52.234;5.186;2023-07-29T04:52:00;10.45;;;2.95;;
72301;SDS011;60235;52.234;5.186;2023-07-29T04:54:26;8.68;;;2.35;;
72301;SDS011;60235;52.234;5.186;2023-07-29T04:56:52;6.75;;;2.60;;
72301;SDS011;60235;52.234;5.186;2023-07-29T04:59:18;7.38;;;2.25;;
72301;SDS011;60235;52.234;5.186;2023-07-29T05:01:44;10.18;;;2.95;;
72301;SDS011;60235;52.234;5.186;2023-07-29T05:04:10;8.02;;;2.67;;
72301;SDS011;60235;52.234;5.186;2023-07-29T05:06:36;8.73;;;2.65;;
72301;SDS011;60235;52.234;5.186;2023-07-29T05:09:12;10.15;;;2.63;;
72301;SDS011;60235;52.234;5.186;2023-07-29T05:11:39;7.15;;;2.80;;
72301;SDS011;60235;52.234;5.186;2023-07-29T05:14:05;6.97;;;2.45;;
72301;SDS011;60235;52.234;5.186;2023-07-29T05:16:31;12.18;;;3.00;;
72301;SDS011;60235;52.234;5.186;2023-07-29T05:18:57;9.70;;;3.10;;
72301;SDS011;60235;52.234;5.186;2023-07-29T05:21:23;10.38;;;4.07;;
72301;SDS011;60235;52.234;5.186;2023-07-29T05:23:49;9.90;;;2.60;;
72301;SDS011;60235;52.234;5.186;2023-07-29T05:26:15;9.13;;;3.30;;
72301;SDS011;60235;52.234;5.186;2023-07-29T05:28:41;10.95;;;3.20;;
72301;SDS011;60235;52.234;5.186;2023-07-29T05:31:07;8.07;;;2.95;;
72301;SDS011;60235;52.234;5.186;2023-07-29T05:33:33;7.80;;;3.28;;
72301;SDS011;60235;52.234;5.186;2023-07-29T05:35:59;9.82;;;3.17;;
72301;SDS011;60235;52.234;5.186;2023-07-29T05:38:25;9.70;;;3.20;;
72301;SDS011;60235;52.234;5.186;2023-07-29T05:40:51;10.60;;;3.20;;
72301;SDS011;60235;52.234;5.186;2023-07-29T05:43:17;8.32;;;3.00;;
72301;SDS011;60235;52.234;5.186;2023-07-29T05:45:43;8.70;;;2.97;;
72301;SDS011;60235;52.234;5.186;2023-07-29T05:48:09;9.38;;;3.08;;
72301;SDS011;60235;52.234;5.186;2023-07-29T05:50:35;11.57;;;3.63;;
72301;SDS011;60235;52.234;5.186;2023-07-29T05:53:01;8.07;;;3.00;;
72301;SDS011;60235;52.234;5.186;2023-07-29T05:55:27;9.10;;;3.28;;
72301;SDS011;60235;52.234;5.186;2023-07-29T05:57:53;10.35;;;4.03;;
72301;SDS011;60235;52.234;5.186;2023-07-29T06:00:20;10.23;;;3.53;;
72301;SDS011;60235;52.234;5.186;2023-07-29T06:02:46;12.05;;;3.53;;
72301;SDS011;60235;52.234;5.186;2023-07-29T06:05:11;7.65;;;3.00;;
72301;SDS011;60235;52.234;5.186;2023-07-29T06:07:37;13.07;;;3.55;;
72301;SDS011;60235;52.234;5.186;2023-07-29T06:10:03;10.52;;;3.63;;
72301;SDS011;60235;52.234;5.186;2023-07-29T06:12:30;10.43;;;3.50;;
72301;SDS011;60235;52.234;5.186;2023-07-29T06:14:56;7.72;;;3.60;;
72301;SDS011;60235;52.234;5.186;2023-07-29T06:17:22;9.68;;;3.17;;
72301;SDS011;60235;52.234;5.186;2023-07-29T06:19:48;10.75;;;4.05;;
72301;SDS011;60235;52.234;5.186;2023-07-29T06:22:14;11.85;;;4.35;;
72301;SDS011;60235;52.234;5.186;2023-07-29T06:24:40;12.75;;;4.75;;
72301;SDS011;60235;52.234;5.186;2023-07-29T06:27:06;11.57;;;4.00;;
72301;SDS011;60235;52.234;5.186;2023-07-29T06:29:32;10.45;;;4.13;;
72301;SDS011;60235;52.234;5.186;2023-07-29T06:31:58;9.52;;;3.70;;
72301;SDS011;60235;52.234;5.186;2023-07-29T06:34:24;10.43;;;3.88;;
72301;SDS011;60235;52.234;5.186;2023-07-29T06:36:50;10.13;;;3.80;;
72301;SDS011;60235;52.234;5.186;2023-07-29T06:39:16;10.70;;;3.10;;
72301;SDS011;60235;52.234;5.186;2023-07-29T06:41:42;10.30;;;3.90;;
72301;SDS011;60235;52.234;5.186;2023-07-29T06:44:08;11.57;;;4.10;;
72301;SDS011;60235;52.234;5.186;2023-07-29T06:46:34;11.48;;;4.30;;
72301;SDS011;60235;52.234;5.186;2023-07-29T06:49:00;11.05;;;4.35;;
72301;SDS011;60235;52.234;5.186;2023-07-29T06:51:26;9.40;;;3.85;;
72301;SDS011;60235;52.234;5.186;2023-07-29T06:53:54;13.75;;;4.38;;
72301;SDS011;60235;52.234;5.186;2023-07-29T06:56:20;11.90;;;4.72;;
72301;SDS011;60235;52.234;5.186;2023-07-29T06:58:46;8.77;;;3.80;;
72301;SDS011;60235;52.234;5.186;2023-07-29T07:01:12;13.40;;;4.03;;
72301;SDS011;60235;52.234;5.186;2023-07-29T07:03:38;9.82;;;4.18;;
72301;SDS011;60235;52.234;5.186;2023-07-29T07:06:04;13.75;;;4.47;;
72301;SDS011;60235;52.234;5.186;2023-07-29T07:08:30;10.82;;;3.95;;
72301;SDS011;60235;52.234;5.186;2023-07-29T07:10:56;13.00;;;4.18;;
72301;SDS011;60235;52.234;5.186;2023-07-29T07:13:22;13.27;;;4.25;;
72301;SDS011;60235;52.234;5.186;2023-07-29T07:15:48;9.93;;;4.10;;
72301;SDS011;60235;52.234;5.186;2023-07-29T07:18:14;10.82;;;3.83;;
72301;SDS011;60235;52.234;5.186;2023-07-29T07:20:40;11.88;;;4.00;;
72301;SDS011;60235;52.234;5.186;2023-07-29T07:23:06;12.32;;;5.05;;
72301;SDS011;60235;52.234;5.186;2023-07-29T07:25:36;13.20;;;4.50;;
72301;SDS011;60235;52.234;5.186;2023-07-29T07:28:02;10.52;;;3.95;;
72301;SDS011;60235;52.234;5.186;2023-07-29T07:30:28;11.93;;;4.07;;
72301;SDS011;60235;52.234;5.186;2023-07-29T07:32:54;11.20;;;4.00;;
72301;SDS011;60235;52.234;5.186;2023-07-29T07:35:20;11.30;;;3.88;;
72301;SDS011;60235;52.234;5.186;2023-07-29T07:37:46;9.02;;;3.80;;
72301;SDS011;60235;52.234;5.186;2023-07-29T07:40:12;9.13;;;3.95;;
72301;SDS011;60235;52.234;5.186;2023-07-29T07:42:38;10.02;;;3.92;;
72301;SDS011;60235;52.234;5.186;2023-07-29T07:45:04;13.80;;;4.40;;
72301;SDS011;60235;52.234;5.186;2023-07-29T07:47:30;9.75;;;4.50;;
72301;SDS011;60235;52.234;5.186;2023-07-29T07:49:56;10.65;;;5.20;;
72301;SDS011;60235;52.234;5.186;2023-07-29T07:52:22;11.68;;;5.07;;
72301;SDS011;60235;52.234;5.186;2023-07-29T07:54:52;13.02;;;5.13;;
72301;SDS011;60235;52.234;5.186;2023-07-29T07:57:19;7.88;;;4.18;;
72301;SDS011;60235;52.234;5.186;2023-07-29T07:59:45;10.80;;;4.00;;
72301;SDS011;60235;52.234;5.186;2023-07-29T08:02:11;11.48;;;4.60;;
72301;SDS011;60235;52.234;5.186;2023-07-29T08:04:38;11.25;;;4.18;;
72301;SDS011;60235;52.234;5.186;2023-07-29T08:07:04;9.93;;;3.83;;
72301;SDS011;60235;52.234;5.186;2023-07-29T08:09:30;9.25;;;3.75;;
72301;SDS011;60235;52.234;5.186;2023-07-29T08:11:56;8.13;;;3.70;;
72301;SDS011;60235;52.234;5.186;2023-07-29T08:14:22;9.88;;;3.83;;
72301;SDS011;60235;52.234;5.186;2023-07-29T08:16:48;9.68;;;3.70;;
72301;SDS011;60235;52.234;5.186;2023-07-29T08:19:14;8.70;;;3.83;;
72301;SDS011;60235;52.234;5.186;2023-07-29T08:21:40;9.38;;;4.50;;
72301;SDS011;60235;52.234;5.186;2023-07-29T08:24:06;10.32;;;4.47;;
72301;SDS011;60235;52.234;5.186;2023-07-29T08:26:32;8.35;;;4.40;;
72301;SDS011;60235;52.234;5.186;2023-07-29T08:28:58;11.45;;;4.05;;
72301;SDS011;60235;52.234;5.186;2023-07-29T08:31:24;11.25;;;3.65;;
72301;SDS011;60235;52.234;5.186;2023-07-29T08:33:50;8.13;;;3.72;;
72301;SDS011;60235;52.234;5.186;2023-07-29T08:36:16;7.35;;;2.92;;
72301;SDS011;60235;52.234;5.186;2023-07-29T08:38:42;7.03;;;2.75;;
72301;SDS011;60235;52.234;5.186;2023-07-29T08:41:13;8.70;;;3.08;;
72301;SDS011;60235;52.234;5.186;2023-07-29T08:43:42;7.45;;;2.60;;
72301;SDS011;60235;52.234;5.186;2023-07-29T08:46:09;8.00;;;2.75;;
72301;SDS011;60235;52.234;5.186;2023-07-29T08:48:42;8.00;;;2.50;;
72301;SDS011;60235;52.234;5.186;2023-07-29T08:51:11;8.13;;;2.22;;
72301;SDS011;60235;52.234;5.186;2023-07-29T08:53:38;7.40;;;1.90;;
72301;SDS011;60235;52.234;5.186;2023-07-29T08:56:04;7.95;;;1.95;;
72301;SDS011;60235;52.234;5.186;2023-07-29T08:58:31;6.93;;;1.60;;
72301;SDS011;60235;52.234;5.186;2023-07-29T09:00:57;8.05;;;2.05;;
72301;SDS011;60235;52.234;5.186;2023-07-29T09:03:23;10.15;;;2.28;;
72301;SDS011;60235;52.234;5.186;2023-07-29T09:05:49;7.95;;;1.73;;
72301;SDS011;60235;52.234;5.186;2023-07-29T09:08:16;6.47;;;1.65;;
72301;SDS011;60235;52.234;5.186;2023-07-29T09:10:42;6.97;;;2.00;;
72301;SDS011;60235;52.234;5.186;2023-07-29T09:13:08;7.10;;;1.95;;
72301;SDS011;60235;52.234;5.186;2023-07-29T09:15:35;6.80;;;1.98;;
72301;SDS011;60235;52.234;5.186;2023-07-29T09:18:11;6.30;;;2.13;;
72301;SDS011;60235;52.234;5.186;2023-07-29T09:20:37;8.93;;;1.95;;
72301;SDS011;60235;52.234;5.186;2023-07-29T09:23:06;6.38;;;1.92;;
72301;SDS011;60235;52.234;5.186;2023-07-29T09:27:58;7.35;;;1.90;;
72301;SDS011;60235;52.234;5.186;2023-07-29T09:30:25;8.98;;;1.98;;
72301;SDS011;60235;52.234;5.186;2023-07-29T09:32:57;9.45;;;1.98;;
72301;SDS011;60235;52.234;5.186;2023-07-29T09:35:24;6.80;;;1.90;;
72301;SDS011;60235;52.234;5.186;2023-07-29T09:37:51;9.18;;;1.80;;
72301;SDS011;60235;52.234;5.186;2023-07-29T09:40:17;10.15;;;1.90;;
72301;SDS011;60235;52.234;5.186;2023-07-29T09:42:55;6.90;;;1.77;;
72301;SDS011;60235;52.234;5.186;2023-07-29T09:45:22;7.45;;;1.83;;
72301;SDS011;60235;52.234;5.186;2023-07-29T09:47:49;5.53;;;1.73;;
72301;SDS011;60235;52.234;5.186;2023-07-29T09:50:15;5.47;;;1.73;;
72301;SDS011;60235;52.234;5.186;2023-07-29T09:52:41;5.40;;;1.60;;
72301;SDS011;60235;52.234;5.186;2023-07-29T09:55:09;7.45;;;1.83;;
72301;SDS011;60235;52.234;5.186;2023-07-29T09:57:35;6.57;;;1.65;;
72301;SDS011;60235;52.234;5.186;2023-07-29T10:00:04;7.05;;;1.70;;
72301;SDS011;60235;52.234;5.186;2023-07-29T10:02:35;5.53;;;1.70;;
72301;SDS011;60235;52.234;5.186;2023-07-29T10:05:01;6.32;;;1.80;;
72301;SDS011;60235;52.234;5.186;2023-07-29T10:07:28;7.43;;;2.00;;
72301;SDS011;60235;52.234;5.186;2023-07-29T10:09:55;6.38;;;2.00;;
72301;SDS011;60235;52.234;5.186;2023-07-29T10:12:21;8.52;;;2.00;;
72301;SDS011;60235;52.234;5.186;2023-07-29T10:14:48;6.28;;;2.05;;
72301;SDS011;60235;52.234;5.186;2023-07-29T10:17:15;7.20;;;2.28;;
72301;SDS011;60235;52.234;5.186;2023-07-29T10:19:41;10.68;;;2.40;;
72301;SDS011;60235;52.234;5.186;2023-07-29T10:22:08;6.57;;;1.73;;
72301;SDS011;60235;52.234;5.186;2023-07-29T10:24:34;10.93;;;2.53;;
72301;SDS011;60235;52.234;5.186;2023-07-29T10:27:01;7.43;;;2.28;;
72301;SDS011;60235;52.234;5.186;2023-07-29T10:29:29;6.78;;;1.90;;
72301;SDS011;60235;52.234;5.186;2023-07-29T10:31:57;8.13;;;2.40;;
72301;SDS011;60235;52.234;5.186;2023-07-29T10:34:23;5.25;;;1.83;;
72301;SDS011;60235;52.234;5.186;2023-07-29T10:36:50;6.88;;;2.22;;
72301;SDS011;60235;52.234;5.186;2023-07-29T10:39:17;5.32;;;1.85;;
72301;SDS011;60235;52.234;5.186;2023-07-29T10:47:24;6.60;;;2.10;;
72301;SDS011;60235;52.234;5.186;2023-07-29T10:49:51;6.00;;;2.22;;
72301;SDS011;60235;52.234;5.186;2023-07-29T10:54:45;9.82;;;3.17;;
72301;SDS011;60235;52.234;5.186;2023-07-29T10:57:15;8.98;;;2.83;;
72301;SDS011;60235;52.234;5.186;2023-07-29T10:59:42;7.45;;;2.50;;
72301;SDS011;60235;52.234;5.186;2023-07-29T11:02:19;8.88;;;3.13;;
72301;SDS011;60235;52.234;5.186;2023-07-29T11:04:54;7.22;;;3.20;;
72301;SDS011;60235;52.234;5.186;2023-07-29T11:07:21;7.45;;;3.17;;
72301;SDS011;60235;52.234;5.186;2023-07-29T11:09:54;8.25;;;3.67;;
72301;SDS011;60235;52.234;5.186;2023-07-29T11:20:06;7.80;;;4.72;;
72301;SDS011;60235;52.234;5.186;2023-07-29T11:22:33;8.40;;;4.57;;
72301;SDS011;60235;52.234;5.186;2023-07-29T11:24:59;8.80;;;4.50;;
72301;SDS011;60235;52.234;5.186;2023-07-29T11:27:25;8.75;;;4.40;;
72301;SDS011;60235;52.234;5.186;2023-07-29T11:29:56;7.85;;;4.10;;
72301;SDS011;60235;52.234;5.186;2023-07-29T11:32:22;9.13;;;3.90;;
72301;SDS011;60235;52.234;5.186;2023-07-29T11:34:49;9.60;;;3.47;;
72301;SDS011;60235;52.234;5.186;2023-07-29T11:37:16;7.35;;;3.40;;
72301;SDS011;60235;52.234;5.186;2023-07-29T11:39:43;5.80;;;2.45;;
72301;SDS011;60235;52.234;5.186;2023-07-29T11:42:13;7.45;;;2.85;;
72301;SDS011;60235;52.234;5.186;2023-07-29T11:44:40;5.50;;;2.10;;
72301;SDS011;60235;52.234;5.186;2023-07-29T11:47:09;5.43;;;1.75;;
72301;SDS011;60235;52.234;5.186;2023-07-29T11:49:36;5.75;;;1.70;;
72301;SDS011;60235;52.234;5.186;2023-07-29T11:52:03;5.20;;;1.75;;
72301;SDS011;60235;52.234;5.186;2023-07-29T11:54:31;7.50;;;1.48;;
72301;SDS011;60235;52.234;5.186;2023-07-29T11:56:57;5.35;;;1.48;;
72301;SDS011;60235;52.234;5.186;2023-07-29T11:59:23;6.03;;;1.85;;
72301;SDS011;60235;52.234;5.186;2023-07-29T12:01:49;3.67;;;1.27;;
72301;SDS011;60235;52.234;5.186;2023-07-29T12:04:15;2.97;;;1.05;;
72301;SDS011;60235;52.234;5.186;2023-07-29T12:06:42;3.55;;;1.10;;
72301;SDS011;60235;52.234;5.186;2023-07-29T12:09:08;4.63;;;1.45;;
72301;SDS011;60235;52.234;5.186;2023-07-29T12:11:34;6.22;;;1.55;;
72301;SDS011;60235;52.234;5.186;2023-07-29T12:14:00;4.43;;;1.42;;
72301;SDS011;60235;52.234;5.186;2023-07-29T12:16:26;6.03;;;1.60;;
72301;SDS011;60235;52.234;5.186;2023-07-29T12:18:59;4.60;;;1.40;;
72301;SDS011;60235;52.234;5.186;2023-07-29T12:21:25;4.82;;;1.45;;
72301;SDS011;60235;52.234;5.186;2023-07-29T12:23:51;4.55;;;1.50;;
72301;SDS011;60235;52.234;5.186;2023-07-29T12:26:17;4.32;;;1.58;;
72301;SDS011;60235;52.234;5.186;2023-07-29T12:28:46;4.28;;;1.40;;
72301;SDS011;60235;52.234;5.186;2023-07-29T12:31:12;4.53;;;1.50;;
72301;SDS011;60235;52.234;5.186;2023-07-29T12:33:38;5.32;;;1.67;;
72301;SDS011;60235;52.234;5.186;2023-07-29T12:36:06;5.53;;;1.60;;
72301;SDS011;60235;52.234;5.186;2023-07-29T12:38:33;6.50;;;1.75;;
72301;SDS011;60235;52.234;5.186;2023-07-29T12:40:59;4.65;;;1.50;;
72301;SDS011;60235;52.234;5.186;2023-07-29T12:43:25;5.65;;;1.90;;
72301;SDS011;60235;52.234;5.186;2023-07-29T12:45:51;5.45;;;1.85;;
72301;SDS011;60235;52.234;5.186;2023-07-29T12:48:17;6.50;;;2.35;;
72301;SDS011;60235;52.234;5.186;2023-07-29T12:50:44;5.70;;;2.03;;
72301;SDS011;60235;52.234;5.186;2023-07-29T12:53:09;5.70;;;2.20;;
72301;SDS011;60235;52.234;5.186;2023-07-29T12:55:36;5.18;;;2.33;;
72301;SDS011;60235;52.234;5.186;2023-07-29T12:58:02;5.35;;;2.22;;
72301;SDS011;60235;52.234;5.186;2023-07-29T13:00:28;5.18;;;1.80;;
72301;SDS011;60235;52.234;5.186;2023-07-29T13:02:54;5.95;;;2.10;;
72301;SDS011;60235;52.234;5.186;2023-07-29T13:05:20;5.30;;;1.85;;
72301;SDS011;60235;52.234;5.186;2023-07-29T13:07:46;5.20;;;1.77;;
72301;SDS011;60235;52.234;5.186;2023-07-29T13:10:12;6.75;;;2.03;;
72301;SDS011;60235;52.234;5.186;2023-07-29T13:12:39;6.13;;;2.22;;
72301;SDS011;60235;52.234;5.186;2023-07-29T13:15:05;4.57;;;1.98;;
72301;SDS011;60235;52.234;5.186;2023-07-29T13:17:31;6.15;;;1.92;;
72301;SDS011;60235;52.234;5.186;2023-07-29T13:19:57;6.10;;;2.25;;
72301;SDS011;60235;52.234;5.186;2023-07-29T13:22:23;7.70;;;2.58;;
72301;SDS011;60235;52.234;5.186;2023-07-29T13:24:50;5.70;;;2.33;;
72301;SDS011;60235;52.234;5.186;2023-07-29T13:27:16;6.32;;;2.50;;
72301;SDS011;60235;52.234;5.186;2023-07-29T13:29:42;5.53;;;2.17;;
72301;SDS011;60235;52.234;5.186;2023-07-29T13:32:08;8.05;;;2.28;;
72301;SDS011;60235;52.234;5.186;2023-07-29T13:34:34;7.63;;;2.38;;
72301;SDS011;60235;52.234;5.186;2023-07-29T13:37:00;8.27;;;2.05;;
72301;SDS011;60235;52.234;5.186;2023-07-29T13:39:26;5.60;;;2.35;;
72301;SDS011;60235;52.234;5.186;2023-07-29T13:41:52;6.22;;;2.25;;
72301;SDS011;60235;52.234;5.186;2023-07-29T13:44:18;7.50;;;2.80;;
72301;SDS011;60235;52.234;5.186;2023-07-29T13:46:44;8.60;;;2.70;;
72301;SDS011;60235;52.234;5.186;2023-07-29T13:49:10;7.00;;;2.20;;
72301;SDS011;60235;52.234;5.186;2023-07-29T13:51:37;5.43;;;2.35;;
72301;SDS011;60235;52.234;5.186;2023-07-29T13:54:03;5.05;;;1.95;;
72301;SDS011;60235;52.234;5.186;2023-07-29T13:56:29;6.07;;;2.25;;
72301;SDS011;60235;52.234;5.186;2023-07-29T13:58:55;5.72;;;2.15;;
72301;SDS011;60235;52.234;5.186;2023-07-29T14:01:21;5.60;;;2.00;;
72301;SDS011;60235;52.234;5.186;2023-07-29T14:03:47;6.90;;;2.92;;
72301;SDS011;60235;52.234;5.186;2023-07-29T14:06:13;6.53;;;2.55;;
72301;SDS011;60235;52.234;5.186;2023-07-29T14:08:39;7.40;;;2.72;;
72301;SDS011;60235;52.234;5.186;2023-07-29T14:11:06;6.53;;;2.03;;
72301;SDS011;60235;52.234;5.186;2023-07-29T14:13:33;10.88;;;2.63;;
72301;SDS011;60235;52.234;5.186;2023-07-29T14:16:02;9.18;;;2.97;;
72301;SDS011;60235;52.234;5.186;2023-07-29T14:18:28;8.63;;;2.10;;
72301;SDS011;60235;52.234;5.186;2023-07-29T14:20:54;4.80;;;1.85;;
72301;SDS011;60235;52.234;5.186;2023-07-29T14:23:20;6.07;;;1.95;;
72301;SDS011;60235;52.234;5.186;2023-07-29T14:25:46;4.88;;;1.70;;
72301;SDS011;60235;52.234;5.186;2023-07-29T14:28:12;6.25;;;1.73;;
72301;SDS011;60235;52.234;5.186;2023-07-29T14:30:39;5.97;;;1.80;;
72301;SDS011;60235;52.234;5.186;2023-07-29T14:33:06;6.28;;;1.95;;
72301;SDS011;60235;52.234;5.186;2023-07-29T14:35:32;6.15;;;1.85;;
72301;SDS011;60235;52.234;5.186;2023-07-29T14:37:58;4.65;;;1.58;;
72301;SDS011;60235;52.234;5.186;2023-07-29T14:40:24;6.05;;;1.50;;
72301;SDS011;60235;52.234;5.186;2023-07-29T14:42:50;5.50;;;1.60;;
72301;SDS011;60235;52.234;5.186;2023-07-29T14:45:16;4.72;;;1.35;;
72301;SDS011;60235;52.234;5.186;2023-07-29T14:47:42;6.68;;;1.80;;
72301;SDS011;60235;52.234;5.186;2023-07-29T14:50:08;4.30;;;1.23;;
72301;SDS011;60235;52.234;5.186;2023-07-29T14:52:34;5.22;;;1.30;;
72301;SDS011;60235;52.234;5.186;2023-07-29T14:55:00;4.00;;;1.20;;
72301;SDS011;60235;52.234;5.186;2023-07-29T14:57:26;4.63;;;1.48;;
72301;SDS011;60235;52.234;5.186;2023-07-29T14:59:52;6.47;;;1.33;;
72301;SDS011;60235;52.234;5.186;2023-07-29T15:02:18;3.28;;;0.98;;